sensor_id;sensor_type;location;lat;lon;timestamp;pressure;altitude;pressure_sealevel;temperature;humidity
52137;BME280;69622;49.570;10.986;2023-04-25T00:01:06;97651.47;;;8.96;97.91
52137;BME280;69622;49.570;10.986;2023-04-25T00:04:07;97648.28;;;9.04;96.31
52137;BME280;69622;49.570;10.986;2023-04-25T00:07:09;97636.53;;;8.99;97.21
52137;BME280;69622;49.570;10.986;2023-04-25T00:10:11;97646.53;;;8.93;98.11
52137;BME280;69622;49.570;10.986;2023-04-25T00:13:13;97648.38;;;8.70;99.54
52137;BME280;69622;49.570;10.986;2023-04-25T00:16:14;97642.19;;;8.82;98.15
52137;BME280;69622;49.570;10.986;2023-04-25T00:19:16;97636.00;;;8.74;98.93
52137;BME280;69622;49.570;10.986;2023-04-25T00:22:18;97638.81;;;8.70;98.33
52137;BME280;69622;49.570;10.986;2023-04-25T00:25:19;97633.97;;;8.77;99.36
52137;BME280;69622;49.570;10.986;2023-04-25T00:28:20;97638.25;;;8.56;100.00
52137;BME280;69622;49.570;10.986;2023-04-25T00:31:22;97645.84;;;8.80;100.00
52137;BME280;69622;49.570;10.986;2023-04-25T00:34:23;97640.47;;;8.72;100.00
52137;BME280;69622;49.570;10.986;2023-04-25T00:37:25;97635.88;;;8.64;100.00
52137;BME280;69622;49.570;10.986;2023-04-25T00:40:27;97634.72;;;8.68;100.00
52137;BME280;69622;49.570;10.986;2023-04-25T00:43:30;97634.53;;;8.81;100.00
52137;BME280;69622;49.570;10.986;2023-04-25T00:46:32;97632.19;;;8.89;100.00
52137;BME280;69622;49.570;10.986;2023-04-25T00:49:33;97631.50;;;8.87;100.00
52137;BME280;69622;49.570;10.986;2023-04-25T00:52:36;97632.13;;;8.68;100.00
52137;BME280;69622;49.570;10.986;2023-04-25T00:55:38;97632.69;;;8.72;100.00
52137;BME280;69622;49.570;10.986;2023-04-25T00:58:41;97625.59;;;8.85;100.00
52137;BME280;69622;49.570;10.986;2023-04-25T01:01:44;97619.34;;;8.87;100.00
52137;BME280;69622;49.570;10.986;2023-04-25T01:04:47;97620.13;;;8.56;100.00
52137;BME280;69622;49.570;10.986;2023-04-25T01:07:49;97618.78;;;8.73;100.00
52137;BME280;69622;49.570;10.986;2023-04-25T01:10:50;97620.06;;;8.78;100.00
52137;BME280;69622;49.570;10.986;2023-04-25T01:13:52;97621.47;;;8.82;100.00
52137;BME280;69622;49.570;10.986;2023-04-25T01:16:53;97627.00;;;8.89;99.46
52137;BME280;69622;49.570;10.986;2023-04-25T01:19:55;97618.97;;;8.92;99.74
52137;BME280;69622;49.570;10.986;2023-04-25T01:22:57;97615.94;;;8.87;100.00
52137;BME280;69622;49.570;10.986;2023-04-25T01:25:58;97621.78;;;8.46;100.00
52137;BME280;69622;49.570;10.986;2023-04-25T01:29:00;97618.47;;;8.55;100.00
52137;BME280;69622;49.570;10.986;2023-04-25T01:32:02;97612.22;;;8.57;100.00
52137;BME280;69622;49.570;10.986;2023-04-25T01:35:09;97610.47;;;8.35;100.00
52137;BME280;69622;49.570;10.986;2023-04-25T01:38:12;97608.44;;;8.50;100.00
52137;BME280;69622;49.570;10.986;2023-04-25T01:41:14;97614.25;;;8.54;100.00
52137;BME280;69622;49.570;10.986;2023-04-25T01:44:16;97610.13;;;8.40;100.00
52137;BME280;69622;49.570;10.986;2023-04-25T01:47:17;97613.28;;;8.55;100.00
52137;BME280;69622;49.570;10.986;2023-04-25T01:50:19;97614.31;;;8.63;100.00
52137;BME280;69622;49.570;10.986;2023-04-25T01:53:21;97609.38;;;8.60;100.00
52137;BME280;69622;49.570;10.986;2023-04-25T01:56:23;97619.53;;;8.52;100.00
52137;BME280;69622;49.570;10.986;2023-04-25T01:59:25;97610.44;;;8.69;99.99
52137;BME280;69622;49.570;10.986;2023-04-25T02:02:26;97610.66;;;8.66;100.00
52137;BME280;69622;49.570;10.986;2023-04-25T02:05:28;97614.44;;;8.62;100.00
52137;BME280;69622;49.570;10.986;2023-04-25T02:08:30;97617.59;;;8.77;99.52
52137;BME280;69622;49.570;10.986;2023-04-25T02:11:32;97613.00;;;8.80;99.02
52137;BME280;69622;49.570;10.986;2023-04-25T02:14:33;97607.09;;;8.78;98.55
52137;BME280;69622;49.570;10.986;2023-04-25T02:17:35;97616.66;;;8.78;99.90
52137;BME280;69622;49.570;10.986;2023-04-25T02:20:37;97614.56;;;8.60;100.00
52137;BME280;69622;49.570;10.986;2023-04-25T02:23:38;97610.69;;;8.55;100.00
52137;BME280;69622;49.570;10.986;2023-04-25T02:26:39;97606.22;;;8.46;100.00
52137;BME280;69622;49.570;10.986;2023-04-25T02:29:41;97603.50;;;8.36;100.00
52137;BME280;69622;49.570;10.986;2023-04-25T02:32:42;97601.25;;;8.31;100.00
52137;BME280;69622;49.570;10.986;2023-04-25T02:35:44;97604.56;;;8.11;100.00
52137;BME280;69622;49.570;10.986;2023-04-25T02:38:45;97589.50;;;8.16;100.00
52137;BME280;69622;49.570;10.986;2023-04-25T02:41:46;97599.16;;;8.25;100.00
52137;BME280;69622;49.570;10.986;2023-04-25T02:44:48;97596.00;;;8.22;100.00
52137;BME280;69622;49.570;10.986;2023-04-25T02:47:49;97594.81;;;8.26;100.00
52137;BME280;69622;49.570;10.986;2023-04-25T02:50:51;97589.94;;;8.32;100.00
52137;BME280;69622;49.570;10.986;2023-04-25T02:53:52;97585.97;;;8.28;100.00
52137;BME280;69622;49.570;10.986;2023-04-25T02:56:54;97584.56;;;8.35;100.00
52137;BME280;69622;49.570;10.986;2023-04-25T02:59:55;97587.97;;;8.25;100.00
52137;BME280;69622;49.570;10.986;2023-04-25T03:02:57;97583.63;;;8.25;100.00
52137;BME280;69622;49.570;10.986;2023-04-25T03:05:58;97580.44;;;8.10;100.00
52137;BME280;69622;49.570;10.986;2023-04-25T03:09:00;97573.03;;;7.84;100.00
52137;BME280;69622;49.570;10.986;2023-04-25T03:12:01;97576.44;;;7.84;100.00
52137;BME280;69622;49.570;10.986;2023-04-25T03:15:03;97575.03;;;7.80;100.00
52137;BME280;69622;49.570;10.986;2023-04-25T03:18:04;97570.69;;;7.92;100.00
52137;BME280;69622;49.570;10.986;2023-04-25T03:21:06;97586.69;;;7.97;100.00
52137;BME280;69622;49.570;10.986;2023-04-25T03:24:07;97581.97;;;8.02;100.00
52137;BME280;69622;49.570;10.986;2023-04-25T03:27:09;97580.44;;;7.88;100.00
52137;BME280;69622;49.570;10.986;2023-04-25T03:30:10;97576.09;;;8.00;100.00
52137;BME280;69622;49.570;10.986;2023-04-25T03:33:12;97574.69;;;7.96;100.00
52137;BME280;69622;49.570;10.986;2023-04-25T03:36:13;97571.41;;;8.05;100.00
52137;BME280;69622;49.570;10.986;2023-04-25T03:39:15;97572.09;;;7.96;100.00
52137;BME280;69622;49.570;10.986;2023-04-25T03:42:17;97577.16;;;7.97;100.00
52137;BME280;69622;49.570;10.986;2023-04-25T03:45:18;97576.81;;;7.91;100.00
52137;BME280;69622;49.570;10.986;2023-04-25T03:48:20;97576.66;;;7.81;100.00
52137;BME280;69622;49.570;10.986;2023-04-25T03:51:26;97576.22;;;7.98;100.00
52137;BME280;69622;49.570;10.986;2023-04-25T03:54:28;97574.31;;;8.00;100.00
52137;BME280;69622;49.570;10.986;2023-04-25T03:57:29;97573.72;;;7.97;100.00
52137;BME280;69622;49.570;10.986;2023-04-25T04:00:31;97582.56;;;8.05;100.00
52137;BME280;69622;49.570;10.986;2023-04-25T04:03:33;97583.38;;;7.95;100.00
52137;BME280;69622;49.570;10.986;2023-04-25T04:06:35;97574.91;;;7.93;100.00
52137;BME280;69622;49.570;10.986;2023-04-25T04:09:37;97573.03;;;7.84;100.00
52137;BME280;69622;49.570;10.986;2023-04-25T04:12:39;97582.75;;;7.69;100.00
52137;BME280;69622;49.570;10.986;2023-04-25T04:15:40;97584.41;;;7.70;100.00
52137;BME280;69622;49.570;10.986;2023-04-25T04:18:41;97586.31;;;7.79;100.00
52137;BME280;69622;49.570;10.986;2023-04-25T04:21:43;97581.97;;;7.79;100.00
52137;BME280;69622;49.570;10.986;2023-04-25T04:24:44;97590.78;;;7.77;100.00
52137;BME280;69622;49.570;10.986;2023-04-25T04:27:47;97589.63;;;7.81;100.00
52137;BME280;69622;49.570;10.986;2023-04-25T04:30:48;97591.03;;;7.74;100.00
52137;BME280;69622;49.570;10.986;2023-04-25T04:33:52;97595.72;;;7.80;100.00
52137;BME280;69622;49.570;10.986;2023-04-25T04:36:54;97598.47;;;7.90;100.00
52137;BME280;69622;49.570;10.986;2023-04-25T04:39:56;97601.50;;;7.84;100.00
52137;BME280;69622;49.570;10.986;2023-04-25T04:42:57;97593.84;;;7.82;100.00
52137;BME280;69622;49.570;10.986;2023-04-25T04:46:02;97590.31;;;7.83;100.00
52137;BME280;69622;49.570;10.986;2023-04-25T04:49:05;97595.38;;;7.85;100.00
52137;BME280;69622;49.570;10.986;2023-04-25T04:52:06;97597.03;;;7.86;100.00
52137;BME280;69622;49.570;10.986;2023-04-25T04:55:08;97606.81;;;7.93;100.00
52137;BME280;69622;49.570;10.986;2023-04-25T04:58:09;97605.25;;;8.02;100.00
52137;BME280;69622;49.570;10.986;2023-04-25T05:01:11;97617.38;;;7.79;100.00
52137;BME280;69622;49.570;10.986;2023-04-25T05:04:13;97615.03;;;7.98;100.00
52137;BME280;69622;49.570;10.986;2023-04-25T05:07:14;97615.84;;;7.88;100.00
52137;BME280;69622;49.570;10.986;2023-04-25T05:10:17;97613.28;;;7.99;100.00
52137;BME280;69622;49.570;10.986;2023-04-25T05:13:19;97621.34;;;7.72;100.00
52137;BME280;69622;49.570;10.986;2023-04-25T05:16:20;97618.06;;;7.70;100.00
52137;BME280;69622;49.570;10.986;2023-04-25T05:19:22;97615.41;;;7.94;100.00
52137;BME280;69622;49.570;10.986;2023-04-25T05:22:23;97613.69;;;7.70;100.00
52137;BME280;69622;49.570;10.986;2023-04-25T05:34:09;97617.69;;;7.63;100.00
52137;BME280;69622;49.570;10.986;2023-04-25T05:37:10;97621.56;;;7.69;100.00
52137;BME280;69622;49.570;10.986;2023-04-25T05:40:12;97619.69;;;7.60;100.00
52137;BME280;69622;49.570;10.986;2023-04-25T05:43:13;97622.63;;;7.66;100.00
52137;BME280;69622;49.570;10.986;2023-04-25T05:46:15;97626.19;;;7.76;100.00
52137;BME280;69622;49.570;10.986;2023-04-25T05:49:18;97622.63;;;7.66;100.00
52137;BME280;69622;49.570;10.986;2023-04-25T05:52:20;97628.41;;;7.59;100.00
52137;BME280;69622;49.570;10.986;2023-04-25T05:55:21;97627.56;;;7.58;100.00
52137;BME280;69622;49.570;10.986;2023-04-25T05:58:22;97629.84;;;7.74;100.00
52137;BME280;69622;49.570;10.986;2023-04-25T06:01:24;97637.00;;;7.70;100.00
52137;BME280;69622;49.570;10.986;2023-04-25T06:04:26;97639.25;;;7.75;100.00
52137;BME280;69622;49.570;10.986;2023-04-25T06:07:28;97637.09;;;7.69;100.00
52137;BME280;69622;49.570;10.986;2023-04-25T06:10:29;97637.59;;;7.74;100.00
52137;BME280;69622;49.570;10.986;2023-04-25T06:13:31;97645.03;;;7.90;100.00
52137;BME280;69622;49.570;10.986;2023-04-25T06:16:32;97642.13;;;8.05;100.00
52137;BME280;69622;49.570;10.986;2023-04-25T06:19:35;97646.22;;;7.97;100.00
52137;BME280;69622;49.570;10.986;2023-04-25T06:22:36;97646.81;;;7.89;100.00
52137;BME280;69622;49.570;10.986;2023-04-25T06:25:38;97646.53;;;7.81;100.00
52137;BME280;69622;49.570;10.986;2023-04-25T06:28:39;97647.22;;;7.72;100.00
52137;BME280;69622;49.570;10.986;2023-04-25T06:31:41;97652.53;;;7.81;100.00
52137;BME280;69622;49.570;10.986;2023-04-25T06:34:43;97649.72;;;7.85;100.00
52137;BME280;69622;49.570;10.986;2023-04-25T06:37:44;97648.53;;;7.89;100.00
52137;BME280;69622;49.570;10.986;2023-04-25T06:40:46;97647.22;;;7.72;100.00
52137;BME280;69622;49.570;10.986;2023-04-25T06:43:47;97661.34;;;7.68;100.00
52137;BME280;69622;49.570;10.986;2023-04-25T06:46:48;97655.59;;;7.75;100.00
52137;BME280;69622;49.570;10.986;2023-04-25T06:49:50;97656.53;;;7.74;100.00
52137;BME280;69622;49.570;10.986;2023-04-25T06:52:51;97657.25;;;7.88;100.00
52137;BME280;69622;49.570;10.986;2023-04-25T06:55:53;97662.84;;;7.59;100.00
52137;BME280;69622;49.570;10.986;2023-04-25T06:58:54;97669.78;;;7.59;100.00
52137;BME280;69622;49.570;10.986;2023-04-25T07:01:56;97681.13;;;7.21;100.00
52137;BME280;69622;49.570;10.986;2023-04-25T07:04:57;97681.03;;;7.22;100.00
52137;BME280;69622;49.570;10.986;2023-04-25T07:08:01;97679.09;;;7.37;100.00
52137;BME280;69622;49.570;10.986;2023-04-25T07:11:03;97684.78;;;7.18;100.00
52137;BME280;69622;49.570;10.986;2023-04-25T07:14:04;97692.56;;;7.06;100.00
52137;BME280;69622;49.570;10.986;2023-04-25T07:17:05;97695.38;;;6.79;100.00
52137;BME280;69622;49.570;10.986;2023-04-25T07:20:08;97693.69;;;7.14;100.00
52137;BME280;69622;49.570;10.986;2023-04-25T07:23:10;97689.69;;;6.74;100.00
52137;BME280;69622;49.570;10.986;2023-04-25T07:26:11;97690.81;;;7.06;100.00
52137;BME280;69622;49.570;10.986;2023-04-25T07:29:13;97684.13;;;7.28;100.00
52137;BME280;69622;49.570;10.986;2023-04-25T07:32:15;97674.56;;;7.52;100.00
52137;BME280;69622;49.570;10.986;2023-04-25T07:35:17;97678.72;;;7.66;100.00
52137;BME280;69622;49.570;10.986;2023-04-25T07:38:18;97683.19;;;7.64;100.00
52137;BME280;69622;49.570;10.986;2023-04-25T07:41:20;97686.19;;;7.46;100.00
52137;BME280;69622;49.570;10.986;2023-04-25T07:44:21;97687.78;;;7.36;100.00
52137;BME280;69622;49.570;10.986;2023-04-25T07:47:23;97688.22;;;7.54;100.00
52137;BME280;69622;49.570;10.986;2023-04-25T07:50:24;97699.56;;;7.64;100.00
52137;BME280;69622;49.570;10.986;2023-04-25T07:53:26;97696.03;;;7.65;100.00
52137;BME280;69622;49.570;10.986;2023-04-25T07:56:28;97698.19;;;7.82;100.00
52137;BME280;69622;49.570;10.986;2023-04-25T07:59:45;97697.38;;;7.82;100.00
52137;BME280;69622;49.570;10.986;2023-04-25T08:02:47;97708.22;;;7.98;100.00
52137;BME280;69622;49.570;10.986;2023-04-25T08:05:49;97701.75;;;8.04;100.00
52137;BME280;69622;49.570;10.986;2023-04-25T08:08:51;97700.25;;;8.13;100.00
52137;BME280;69622;49.570;10.986;2023-04-25T08:11:53;97705.78;;;8.08;100.00
52137;BME280;69622;49.570;10.986;2023-04-25T08:14:54;97710.00;;;7.98;100.00
52137;BME280;69622;49.570;10.986;2023-04-25T08:17:56;97701.56;;;8.18;100.00
52137;BME280;69622;49.570;10.986;2023-04-25T08:20:57;97708.41;;;8.30;100.00
52137;BME280;69622;49.570;10.986;2023-04-25T08:23:59;97719.81;;;8.28;100.00
52137;BME280;69622;49.570;10.986;2023-04-25T08:27:00;97715.19;;;8.20;100.00
52137;BME280;69622;49.570;10.986;2023-04-25T08:30:03;97722.78;;;8.34;100.00
52137;BME280;69622;49.570;10.986;2023-04-25T08:33:05;97722.31;;;8.52;100.00
52137;BME280;69622;49.570;10.986;2023-04-25T08:36:07;97723.03;;;8.43;100.00
52137;BME280;69622;49.570;10.986;2023-04-25T08:39:08;97729.34;;;8.27;100.00
52137;BME280;69622;49.570;10.986;2023-04-25T08:42:12;97736.81;;;8.43;100.00
52137;BME280;69622;49.570;10.986;2023-04-25T08:45:13;97737.53;;;8.45;100.00
52137;BME280;69622;49.570;10.986;2023-04-25T08:48:16;97735.66;;;8.58;100.00
52137;BME280;69622;49.570;10.986;2023-04-25T08:51:22;97738.22;;;8.47;100.00
52137;BME280;69622;49.570;10.986;2023-04-25T08:54:27;97738.72;;;8.52;100.00
52137;BME280;69622;49.570;10.986;2023-04-25T08:57:49;97740.38;;;8.53;100.00
52137;BME280;69622;49.570;10.986;2023-04-25T09:00:51;97733.53;;;8.63;100.00
52137;BME280;69622;49.570;10.986;2023-04-25T09:03:54;97738.94;;;8.83;100.00
52137;BME280;69622;49.570;10.986;2023-04-25T09:06:56;97738.59;;;8.76;100.00
52137;BME280;69622;49.570;10.986;2023-04-25T09:09:57;97736.47;;;9.04;100.00
52137;BME280;69622;49.570;10.986;2023-04-25T09:13:11;97737.53;;;8.90;100.00
52137;BME280;69622;49.570;10.986;2023-04-25T09:16:16;97741.03;;;9.11;100.00
52137;BME280;69622;49.570;10.986;2023-04-25T09:19:36;97742.78;;;9.22;100.00
52137;BME280;69622;49.570;10.986;2023-04-25T09:22:45;97744.66;;;9.31;100.00
52137;BME280;69622;49.570;10.986;2023-04-25T09:25:48;97751.56;;;9.42;100.00
52137;BME280;69622;49.570;10.986;2023-04-25T09:29:05;97753.97;;;9.22;95.35
52137;BME280;69622;49.570;10.986;2023-04-25T09:32:23;97746.88;;;9.36;95.77
52137;BME280;69622;49.570;10.986;2023-04-25T09:35:25;97749.56;;;9.77;96.79
52137;BME280;69622;49.570;10.986;2023-04-25T09:38:31;97749.81;;;9.74;89.25
52137;BME280;69622;49.570;10.986;2023-04-25T09:41:37;97745.53;;;10.05;88.34
52137;BME280;69622;49.570;10.986;2023-04-25T09:44:42;97743.84;;;10.36;85.32
52137;BME280;69622;49.570;10.986;2023-04-25T09:47:44;97749.03;;;10.36;86.78
52137;BME280;69622;49.570;10.986;2023-04-25T09:51:06;97747.78;;;10.10;75.53
52137;BME280;69622;49.570;10.986;2023-04-25T09:54:08;97754.44;;;9.91;71.71
52137;BME280;69622;49.570;10.986;2023-04-25T09:57:11;97766.44;;;9.83;72.90
52137;BME280;69622;49.570;10.986;2023-04-25T10:00:14;97769.06;;;10.25;68.44
52137;BME280;69622;49.570;10.986;2023-04-25T10:03:17;97766.31;;;10.05;72.53
52137;BME280;69622;49.570;10.986;2023-04-25T10:06:19;97768.16;;;10.14;71.14
52137;BME280;69622;49.570;10.986;2023-04-25T10:09:25;97770.63;;;9.95;71.65
52137;BME280;69622;49.570;10.986;2023-04-25T10:12:27;97768.13;;;9.94;70.62
52137;BME280;69622;49.570;10.986;2023-04-25T10:15:28;97769.22;;;9.91;70.19
52137;BME280;69622;49.570;10.986;2023-04-25T10:18:31;97772.69;;;9.80;71.22
52137;BME280;69622;49.570;10.986;2023-04-25T10:21:33;97772.41;;;10.15;75.14
52137;BME280;69622;49.570;10.986;2023-04-25T10:24:36;97771.28;;;10.50;72.40
52137;BME280;69622;49.570;10.986;2023-04-25T10:27:38;97773.66;;;10.32;67.72
52137;BME280;69622;49.570;10.986;2023-04-25T10:31:03;97775.94;;;10.46;66.79
52137;BME280;69622;49.570;10.986;2023-04-25T10:34:05;97776.31;;;10.21;66.42
52137;BME280;69622;49.570;10.986;2023-04-25T10:37:09;97765.53;;;10.46;66.52
52137;BME280;69622;49.570;10.986;2023-04-25T10:40:11;97767.56;;;10.43;69.61
52137;BME280;69622;49.570;10.986;2023-04-25T10:46:33;97772.38;;;10.47;60.73
52137;BME280;69622;49.570;10.986;2023-04-25T10:49:37;97771.94;;;10.73;68.66
52137;BME280;69622;49.570;10.986;2023-04-25T10:52:39;97773.16;;;10.99;66.32
52137;BME280;69622;49.570;10.986;2023-04-25T10:55:51;97769.72;;;10.99;66.28
52137;BME280;69622;49.570;10.986;2023-04-25T10:59:07;97775.28;;;10.85;66.40
52137;BME280;69622;49.570;10.986;2023-04-25T11:02:12;97786.25;;;10.88;65.28
52137;BME280;69622;49.570;10.986;2023-04-25T11:05:21;97792.53;;;10.34;67.33
52137;BME280;69622;49.570;10.986;2023-04-25T11:08:37;97792.94;;;9.98;67.61
52137;BME280;69622;49.570;10.986;2023-04-25T11:11:56;97797.47;;;9.84;68.42
52137;BME280;69622;49.570;10.986;2023-04-25T11:15:03;97796.09;;;9.69;68.61
52137;BME280;69622;49.570;10.986;2023-04-25T11:18:05;97797.34;;;9.86;68.00
52137;BME280;69622;49.570;10.986;2023-04-25T11:21:06;97798.94;;;10.30;68.91
52137;BME280;69622;49.570;10.986;2023-04-25T11:24:08;97802.97;;;10.23;65.19
52137;BME280;69622;49.570;10.986;2023-04-25T11:27:10;97812.72;;;10.10;64.30
52137;BME280;69622;49.570;10.986;2023-04-25T11:30:13;97804.31;;;10.38;64.83
52137;BME280;69622;49.570;10.986;2023-04-25T11:33:16;97806.47;;;10.75;63.99
52137;BME280;69622;49.570;10.986;2023-04-25T11:36:18;97809.94;;;10.64;62.52
52137;BME280;69622;49.570;10.986;2023-04-25T11:39:20;97804.81;;;10.74;58.98
52137;BME280;69622;49.570;10.986;2023-04-25T11:42:21;97795.94;;;10.76;61.72
52137;BME280;69622;49.570;10.986;2023-04-25T11:45:23;97811.47;;;10.67;59.97
52137;BME280;69622;49.570;10.986;2023-04-25T11:48:25;97810.19;;;10.40;61.81
52137;BME280;69622;49.570;10.986;2023-04-25T11:51:26;97812.50;;;10.34;62.75
52137;BME280;69622;49.570;10.986;2023-04-25T11:54:28;97830.03;;;10.09;60.57
52137;BME280;69622;49.570;10.986;2023-04-25T11:57:31;97827.34;;;9.79;62.87
52137;BME280;69622;49.570;10.986;2023-04-25T12:00:32;97825.06;;;9.85;61.08
52137;BME280;69622;49.570;10.986;2023-04-25T12:03:33;97823.16;;;9.99;63.47
52137;BME280;69622;49.570;10.986;2023-04-25T12:06:37;97819.19;;;10.15;62.96
52137;BME280;69622;49.570;10.986;2023-04-25T12:09:41;97826.47;;;10.22;62.27
52137;BME280;69622;49.570;10.986;2023-04-25T12:12:45;97827.09;;;10.46;64.27
52137;BME280;69622;49.570;10.986;2023-04-25T12:15:46;97824.66;;;10.75;64.39
52137;BME280;69622;49.570;10.986;2023-04-25T12:18:51;97831.06;;;10.29;60.01
52137;BME280;69622;49.570;10.986;2023-04-25T12:21:53;97828.47;;;10.50;60.73
52137;BME280;69622;49.570;10.986;2023-04-25T12:24:59;97840.31;;;10.22;60.02
52137;BME280;69622;49.570;10.986;2023-04-25T12:28:21;97840.78;;;10.16;60.41
52137;BME280;69622;49.570;10.986;2023-04-25T12:31:26;97847.50;;;10.50;63.22
52137;BME280;69622;49.570;10.986;2023-04-25T12:34:28;97850.22;;;10.28;60.26
52137;BME280;69622;49.570;10.986;2023-04-25T12:37:29;97844.75;;;10.31;61.48
52137;BME280;69622;49.570;10.986;2023-04-25T12:40:32;97849.81;;;10.33;59.71
52137;BME280;69622;49.570;10.986;2023-04-25T12:43:33;97851.44;;;10.45;63.79
52137;BME280;69622;49.570;10.986;2023-04-25T12:46:36;97853.78;;;10.48;62.52
52137;BME280;69622;49.570;10.986;2023-04-25T12:49:37;97851.16;;;10.69;63.00
52137;BME280;69622;49.570;10.986;2023-04-25T12:52:39;97850.34;;;10.89;63.42
52137;BME280;69622;49.570;10.986;2023-04-25T12:55:40;97858.06;;;10.79;61.44
52137;BME280;69622;49.570;10.986;2023-04-25T12:58:42;97857.94;;;10.81;62.41
52137;BME280;69622;49.570;10.986;2023-04-25T13:01:45;97863.28;;;10.59;59.25
52137;BME280;69622;49.570;10.986;2023-04-25T13:04:46;97865.06;;;10.79;62.54
52137;BME280;69622;49.570;10.986;2023-04-25T13:07:48;97869.78;;;10.95;60.83
52137;BME280;69622;49.570;10.986;2023-04-25T13:10:50;97878.81;;;10.70;58.85
52137;BME280;69622;49.570;10.986;2023-04-25T13:13:51;97874.06;;;10.22;57.90
52137;BME280;69622;49.570;10.986;2023-04-25T13:16:53;97884.00;;;10.17;60.08
52137;BME280;69622;49.570;10.986;2023-04-25T13:19:55;97868.63;;;10.25;61.87
52137;BME280;69622;49.570;10.986;2023-04-25T13:22:57;97874.16;;;10.32;62.39
52137;BME280;69622;49.570;10.986;2023-04-25T13:26:00;97877.41;;;10.45;64.30
52137;BME280;69622;49.570;10.986;2023-04-25T13:29:02;97880.09;;;10.23;60.86
52137;BME280;69622;49.570;10.986;2023-04-25T13:32:04;97885.09;;;10.03;62.67
52137;BME280;69622;49.570;10.986;2023-04-25T13:35:11;97891.59;;;10.41;63.76
52137;BME280;69622;49.570;10.986;2023-04-25T13:38:13;97900.34;;;10.40;63.83
52137;BME280;69622;49.570;10.986;2023-04-25T13:41:15;97900.34;;;10.40;64.50
52137;BME280;69622;49.570;10.986;2023-04-25T13:44:19;97911.69;;;10.39;63.12
52137;BME280;69622;49.570;10.986;2023-04-25T13:47:22;97916.66;;;10.42;62.23
52137;BME280;69622;49.570;10.986;2023-04-25T13:50:24;97909.31;;;10.47;63.77
52137;BME280;69622;49.570;10.986;2023-04-25T13:53:26;97909.44;;;10.45;62.31
52137;BME280;69622;49.570;10.986;2023-04-25T13:56:27;97912.06;;;10.34;59.19
52137;BME280;69622;49.570;10.986;2023-04-25T13:59:29;97915.09;;;10.39;61.18
52137;BME280;69622;49.570;10.986;2023-04-25T14:02:30;97917.94;;;10.47;62.40
52137;BME280;69622;49.570;10.986;2023-04-25T14:05:31;97927.66;;;10.34;61.53
52137;BME280;69622;49.570;10.986;2023-04-25T14:08:33;97924.63;;;10.18;62.95
52137;BME280;69622;49.570;10.986;2023-04-25T14:11:34;97932.66;;;10.26;63.00
52137;BME280;69622;49.570;10.986;2023-04-25T14:14:36;97934.91;;;10.08;62.87
52137;BME280;69622;49.570;10.986;2023-04-25T14:17:37;97931.53;;;9.97;64.66
52137;BME280;69622;49.570;10.986;2023-04-25T14:20:39;97934.47;;;9.92;65.44
52137;BME280;69622;49.570;10.986;2023-04-25T14:23:40;97930.75;;;10.17;65.89
52137;BME280;69622;49.570;10.986;2023-04-25T14:26:42;97933.09;;;10.20;67.41
52137;BME280;69622;49.570;10.986;2023-04-25T14:29:46;97935.06;;;9.96;64.46
52137;BME280;69622;49.570;10.986;2023-04-25T14:32:49;97934.38;;;9.82;63.88
52137;BME280;69622;49.570;10.986;2023-04-25T14:35:51;97928.69;;;10.00;65.35
52137;BME280;69622;49.570;10.986;2023-04-25T14:38:52;97939.53;;;9.94;63.85
52137;BME280;69622;49.570;10.986;2023-04-25T14:41:54;97945.09;;;10.00;64.89
52137;BME280;69622;49.570;10.986;2023-04-25T14:44:55;97948.75;;;9.98;64.95
52137;BME280;69622;49.570;10.986;2023-04-25T14:47:56;97959.25;;;9.96;63.78
52137;BME280;69622;49.570;10.986;2023-04-25T14:50:59;97954.28;;;10.04;63.94
52137;BME280;69622;49.570;10.986;2023-04-25T14:54:01;97955.78;;;10.18;65.81
52137;BME280;69622;49.570;10.986;2023-04-25T14:57:02;97964.69;;;9.93;64.25
52137;BME280;69622;49.570;10.986;2023-04-25T15:00:05;97958.06;;;10.00;64.51
52137;BME280;69622;49.570;10.986;2023-04-25T15:03:10;97954.97;;;10.06;66.51
52137;BME280;69622;49.570;10.986;2023-04-25T15:06:14;97957.50;;;9.97;64.54
52137;BME280;69622;49.570;10.986;2023-04-25T15:09:15;97968.31;;;10.13;64.79
52137;BME280;69622;49.570;10.986;2023-04-25T15:12:19;97974.97;;;9.83;63.25
52137;BME280;69622;49.570;10.986;2023-04-25T15:15:21;97969.28;;;10.01;65.06
52137;BME280;69622;49.570;10.986;2023-04-25T15:18:27;97968.97;;;9.83;66.22
52137;BME280;69622;49.570;10.986;2023-04-25T15:21:30;97976.00;;;9.92;65.55
52137;BME280;69622;49.570;10.986;2023-04-25T15:24:32;97980.38;;;9.91;65.70
52137;BME280;69622;49.570;10.986;2023-04-25T15:27:34;97983.47;;;9.97;65.77
52137;BME280;69622;49.570;10.986;2023-04-25T15:30:38;97980.75;;;9.98;64.56
52137;BME280;69622;49.570;10.986;2023-04-25T15:33:40;97987.25;;;9.81;65.98
52137;BME280;69622;49.570;10.986;2023-04-25T15:36:41;97986.56;;;9.79;65.44
52137;BME280;69622;49.570;10.986;2023-04-25T15:39:43;97983.59;;;9.84;66.00
52137;BME280;69622;49.570;10.986;2023-04-25T15:42:47;97989.09;;;10.13;66.10
52137;BME280;69622;49.570;10.986;2023-04-25T15:45:51;97993.25;;;10.04;65.83
52137;BME280;69622;49.570;10.986;2023-04-25T15:48:53;97995.00;;;10.15;66.56
52137;BME280;69622;49.570;10.986;2023-04-25T15:51:55;97997.84;;;9.89;67.30
52137;BME280;69622;49.570;10.986;2023-04-25T15:54:56;97998.19;;;10.18;68.06
52137;BME280;69622;49.570;10.986;2023-04-25T15:57:58;97992.53;;;10.13;67.21
52137;BME280;69622;49.570;10.986;2023-04-25T16:00:59;97993.09;;;10.17;69.67
52137;BME280;69622;49.570;10.986;2023-04-25T16:04:01;98001.63;;;10.08;67.32
52137;BME280;69622;49.570;10.986;2023-04-25T16:07:03;97999.81;;;10.19;67.63
52137;BME280;69622;49.570;10.986;2023-04-25T16:10:05;98002.09;;;10.24;66.80